createdAt,value
2018-11-07T00:04:49.481Z,57
2018-11-07T00:09:51.948Z,54
2018-11-07T00:14:54.350Z,59
2018-11-07T00:19:56.787Z,55
2018-11-07T00:24:59.229Z,55
2018-11-07T00:30:01.882Z,57
2018-11-07T00:35:04.372Z,57
2018-11-07T00:40:06.562Z,56
2018-11-07T00:45:09.010Z,58
2018-11-07T00:50:11.441Z,55
2018-11-07T00:55:13.940Z,55
2018-11-07T01:00:16.337Z,50
2018-11-07T01:05:18.756Z,58
2018-11-07T01:10:21.189Z,57
2018-11-07T01:15:23.632Z,56
2018-11-07T01:20:26.093Z,51
2018-11-07T01:25:28.788Z,53
2018-11-07T01:30:30.955Z,53
2018-11-07T01:35:33.412Z,61
2018-11-07T01:40:35.890Z,51
2018-11-07T01:45:38.281Z,57
2018-11-07T01:50:40.788Z,59
2018-11-07T01:55:43.151Z,56
2018-11-07T02:00:45.591Z,53
2018-11-07T02:05:48.038Z,53
2018-11-07T02:10:50.472Z,51
2018-11-07T02:15:52.897Z,50
2018-11-07T02:20:55.354Z,52
2018-11-07T02:25:57.852Z,49
2018-11-07T02:31:00.280Z,48
2018-11-07T02:36:02.687Z,51
2018-11-07T02:41:05.124Z,48
2018-11-07T02:46:07.552Z,51
2018-11-07T02:51:10.035Z,49
2018-11-07T02:56:12.438Z,54
2018-11-07T03:01:14.937Z,52
2018-11-07T03:11:19.769Z,52
2018-11-07T03:16:22.262Z,50
2018-11-07T03:21:24.662Z,47
2018-11-07T03:26:27.173Z,52
2018-11-07T03:31:29.584Z,43
2018-11-07T03:36:31.969Z,56
2018-11-07T03:41:34.407Z,69
2018-11-07T03:46:36.886Z,60
2018-11-07T03:51:39.321Z,69
2018-11-07T03:56:41.762Z,65
2018-11-07T04:01:44.183Z,65
2018-11-07T04:06:46.623Z,64
2018-11-07T04:11:49.041Z,67
2018-11-07T04:16:51.492Z,65
2018-11-07T04:21:53.913Z,65
2018-11-07T04:26:56.371Z,67
2018-11-07T04:31:58.833Z,63
2018-11-07T04:37:01.251Z,65
2018-11-07T04:42:03.741Z,61
2018-11-07T04:47:06.126Z,58
2018-11-07T04:52:08.558Z,61
2018-11-07T04:57:11.010Z,64
2018-11-07T05:02:13.455Z,60
2018-11-07T05:07:15.937Z,63
2018-11-07T05:12:23.329Z,60
2018-11-07T05:17:20.776Z,61
2018-11-07T05:22:23.258Z,65
2018-11-07T05:27:25.791Z,70
2018-11-07T05:32:28.128Z,75
2018-11-07T05:37:30.558Z,69
2018-11-07T05:42:33.011Z,70
2018-11-07T05:47:35.437Z,74
2018-11-07T05:52:37.875Z,75
2018-11-07T05:57:40.337Z,71
2018-11-07T06:02:42.760Z,70
2018-11-07T06:07:45.206Z,70
2018-11-07T06:12:47.762Z,70
2018-11-07T06:17:50.094Z,69
2018-11-07T06:22:52.514Z,70
2018-11-07T06:27:54.990Z,65
2018-11-07T06:32:57.412Z,64
2018-11-07T06:37:59.855Z,59
2018-11-07T06:43:02.289Z,57
2018-11-07T06:48:04.758Z,54
2018-11-07T06:53:07.257Z,51
2018-11-07T06:58:09.609Z,50
2018-11-07T07:03:12.048Z,49
2018-11-07T07:08:14.492Z,43
2018-11-07T07:13:16.932Z,43
2018-11-07T07:18:19.366Z,44
2018-11-07T07:23:21.811Z,43
2018-11-07T07:28:24.281Z,42
2018-11-07T07:33:26.771Z,40
2018-11-07T07:38:29.159Z,40
2018-11-07T07:43:31.582Z,40
2018-11-07T07:48:34.044Z,40
2018-11-07T07:53:36.454Z,35
2018-11-07T07:58:38.898Z,36
2018-11-07T08:03:41.332Z,32
2018-11-07T08:08:43.913Z,32
2018-11-07T08:13:46.309Z,35
2018-11-07T08:18:48.651Z,31
2018-11-07T08:23:51.097Z,29
2018-11-07T08:28:53.534Z,30
2018-11-07T08:33:55.974Z,29
2018-11-07T08:38:58.678Z,28
2018-11-07T08:44:00.864Z,25
2018-11-07T08:49:03.287Z,23
2018-11-07T08:54:05.748Z,20
2018-11-07T08:59:08.179Z,21
2018-11-07T09:04:10.621Z,20
2018-11-07T09:09:13.046Z,19
2018-11-07T09:14:15.497Z,19
2018-11-07T09:19:17.945Z,19
2018-11-07T09:24:20.440Z,18
2018-11-07T09:29:22.916Z,18
2018-11-07T09:34:25.262Z,19
2018-11-07T09:39:27.843Z,20
2018-11-07T09:44:30.152Z,19
2018-11-07T09:49:32.582Z,18
2018-11-07T09:54:35.016Z,17
2018-11-07T09:59:37.524Z,17
2018-11-07T10:04:39.983Z,15
2018-11-07T10:09:42.336Z,16
2018-11-07T10:14:44.810Z,16
2018-11-07T10:19:47.275Z,18
2018-11-07T10:24:49.649Z,15
2018-11-07T10:29:52.484Z,15
2018-11-07T10:34:54.542Z,14
2018-11-07T10:39:57.036Z,13
2018-11-07T10:44:59.454Z,13
2018-11-07T10:50:01.906Z,13
2018-11-07T10:55:04.302Z,11
2018-11-07T11:00:11.735Z,13
2018-11-07T11:05:09.217Z,14
2018-11-07T11:10:11.638Z,12
2018-11-07T11:15:14.107Z,12
2018-11-07T11:20:16.531Z,14
2018-11-07T11:25:18.942Z,13
2018-11-07T11:30:21.406Z,12
2018-11-07T11:35:23.907Z,14
2018-11-07T11:40:26.271Z,12
2018-11-07T11:45:28.718Z,15
2018-11-07T11:50:31.292Z,13
2018-11-07T11:55:33.601Z,12
2018-11-07T12:00:36.067Z,13
2018-11-07T12:05:38.498Z,13
2018-11-07T12:10:40.926Z,13
2018-11-07T12:15:43.418Z,14
2018-11-07T12:20:45.813Z,13
2018-11-07T12:25:48.247Z,13
2018-11-07T12:30:50.704Z,13
2018-11-07T12:35:53.129Z,13
2018-11-07T12:40:55.590Z,13
2018-11-07T12:45:58.013Z,13
2018-11-07T12:51:00.479Z,14
2018-11-07T12:56:02.994Z,14
2018-11-07T13:01:05.350Z,13
2018-11-07T13:06:07.897Z,13
2018-11-07T13:11:10.324Z,13
2018-11-07T13:16:12.695Z,16
2018-11-07T13:21:15.124Z,16
2018-11-07T13:26:17.596Z,13
2018-11-07T13:31:20.010Z,13
2018-11-07T13:36:22.428Z,13
2018-11-07T13:41:24.890Z,15
2018-11-07T13:46:27.447Z,13
2018-11-07T13:51:29.858Z,13
2018-11-07T13:56:32.203Z,12
2018-11-07T14:01:34.682Z,13
2018-11-07T14:06:37.145Z,16
2018-11-07T14:11:39.517Z,13
2018-11-07T14:16:41.978Z,15
2018-11-07T14:21:44.434Z,14
2018-11-07T14:26:46.844Z,15
2018-11-07T14:31:49.328Z,17
2018-11-07T14:36:51.747Z,16
2018-11-07T14:41:54.185Z,15
2018-11-07T14:46:56.606Z,15
2018-11-07T14:51:59.051Z,17
2018-11-07T14:57:01.487Z,20
2018-11-07T15:02:03.948Z,19
2018-11-07T15:07:06.440Z,18
2018-11-07T15:12:08.821Z,21
2018-11-07T15:17:11.319Z,20
2018-11-07T15:22:13.691Z,19
2018-11-07T15:27:16.120Z,18
2018-11-07T15:32:18.581Z,18
2018-11-07T15:37:21.001Z,19
2018-11-07T15:42:23.442Z,19
2018-11-07T15:47:25.901Z,21
2018-11-07T15:52:28.498Z,23
2018-11-07T15:57:30.764Z,27
2018-11-07T16:02:33.222Z,25
2018-11-07T16:07:35.673Z,25
2018-11-07T16:12:38.090Z,25
2018-11-07T16:17:40.533Z,25
2018-11-07T16:22:42.983Z,23
2018-11-07T16:27:45.412Z,26
2018-11-07T16:32:48.042Z,28
2018-11-07T16:37:50.365Z,30
2018-11-07T16:42:52.782Z,30
2018-11-07T16:47:55.182Z,31
2018-11-07T16:52:57.647Z,29
2018-11-07T16:58:00.093Z,28
2018-11-07T17:03:02.544Z,24
2018-11-07T17:08:04.933Z,28
2018-11-07T17:13:07.379Z,24
2018-11-07T17:18:09.816Z,25
2018-11-07T17:23:18.526Z,28
2018-11-07T17:28:14.701Z,27
2018-11-07T17:33:17.175Z,26
2018-11-07T17:38:19.610Z,26
2018-11-07T17:43:22.022Z,27
2018-11-07T17:48:24.474Z,26
2018-11-07T17:53:26.939Z,29
2018-11-07T17:58:29.332Z,29
2018-11-07T18:03:31.792Z,30
2018-11-07T18:08:34.233Z,27
2018-11-07T18:13:36.689Z,30
2018-11-07T18:18:39.159Z,33
2018-11-07T18:23:41.530Z,29
2018-11-07T18:28:43.997Z,26
2018-11-07T18:33:46.429Z,28
2018-11-07T18:38:48.887Z,28
2018-11-07T18:43:51.302Z,32
2018-11-07T18:48:53.752Z,29
2018-11-07T18:53:56.218Z,29
2018-11-07T18:58:58.759Z,28
2018-11-07T19:04:01.085Z,27
2018-11-07T19:09:03.510Z,27
2018-11-07T19:14:06.003Z,27
2018-11-07T19:19:08.426Z,27
2018-11-07T19:24:10.858Z,24
2018-11-07T19:29:13.310Z,26
2018-11-07T19:34:15.737Z,27
2018-11-07T19:39:18.217Z,23
2018-11-07T19:44:20.625Z,26
2018-11-07T19:49:23.073Z,27
2018-11-07T19:54:25.508Z,24
2018-11-07T19:59:27.947Z,23
2018-11-07T20:04:30.403Z,26
2018-11-07T20:09:32.894Z,24
2018-11-07T20:14:35.300Z,26
2018-11-07T20:19:37.729Z,24
2018-11-07T20:24:40.196Z,23
2018-11-07T20:29:42.614Z,25
2018-11-07T20:34:45.086Z,24
2018-11-07T20:39:47.485Z,23
2018-11-07T20:44:49.937Z,22
2018-11-07T20:49:52.382Z,23
2018-11-07T20:54:54.858Z,25
2018-11-07T20:59:57.346Z,23
2018-11-07T21:04:59.713Z,23
2018-11-07T21:10:02.280Z,25
2018-11-07T21:15:04.573Z,24
2018-11-07T21:20:07.030Z,21
2018-11-07T21:25:09.451Z,24
2018-11-07T21:30:11.910Z,24
2018-11-07T21:35:14.376Z,21
2018-11-07T21:40:16.786Z,20
2018-11-07T21:45:19.227Z,21
2018-11-07T21:50:21.660Z,19
2018-11-07T21:55:24.101Z,22
2018-11-07T22:00:26.532Z,22
2018-11-07T22:05:28.971Z,25
2018-11-07T22:10:31.399Z,19
2018-11-07T22:15:33.857Z,21
2018-11-07T22:20:36.290Z,21
2018-11-07T22:25:38.723Z,21
2018-11-07T22:30:41.158Z,21
2018-11-07T22:35:43.634Z,21
2018-11-07T22:40:46.039Z,21
2018-11-07T22:45:48.532Z,22
2018-11-07T22:50:50.938Z,20
2018-11-07T22:55:53.387Z,18
2018-11-07T23:00:55.862Z,19
2018-11-07T23:05:58.283Z,19
2018-11-07T23:11:00.686Z,17
2018-11-07T23:16:03.161Z,19
2018-11-07T23:21:05.589Z,19
2018-11-07T23:26:08.007Z,18
2018-11-07T23:31:10.543Z,16
2018-11-07T23:36:12.883Z,15
2018-11-07T23:41:15.357Z,16
2018-11-07T23:46:17.773Z,16
2018-11-07T23:51:20.213Z,15
2018-11-07T23:56:22.646Z,17
